createdAt,value
2019-01-03T00:00:27.912Z,4.20
2019-01-03T00:03:14.638Z,4.23
2019-01-03T00:05:53.472Z,4.30
2019-01-03T00:08:23.537Z,4.33
2019-01-03T00:11:05.863Z,4.31
2019-01-03T00:13:51.988Z,4.24
2019-01-03T00:16:22.176Z,4.25
2019-01-03T00:19:01.460Z,4.30
2019-01-03T00:21:34.621Z,4.37
2019-01-03T00:24:13.620Z,4.38
2019-01-03T00:27:02.513Z,4.33
2019-01-03T00:29:35.088Z,4.33
2019-01-03T00:32:10.955Z,4.39
2019-01-03T00:34:44.197Z,4.34
2019-01-03T00:37:17.049Z,4.24
2019-01-03T00:39:55.909Z,4.24
2019-01-03T00:42:31.714Z,4.19
2019-01-03T00:45:07.503Z,4.18
2019-01-03T00:47:52.610Z,4.29
2019-01-03T00:50:25.603Z,4.34
2019-01-03T00:53:11.766Z,4.32
2019-01-03T00:55:42.902Z,4.29
2019-01-03T00:58:18.816Z,4.32
2019-01-03T01:01:04.317Z,4.36
2019-01-03T01:03:43.283Z,4.42
2019-01-03T01:06:30.093Z,4.40
2019-01-03T01:09:16.585Z,4.41
2019-01-03T01:11:46.726Z,4.35
2019-01-03T01:14:32.226Z,4.29
2019-01-03T01:17:02.306Z,4.29
2019-01-03T01:19:48.934Z,4.29
2019-01-03T01:22:19.007Z,4.31
2019-01-03T01:24:52.088Z,4.38
2019-01-03T01:27:22.153Z,4.44
2019-01-03T01:29:58.949Z,4.46
2019-01-03T01:32:31.790Z,4.39
2019-01-03T01:35:13.674Z,4.38
2019-01-03T01:38:00.124Z,4.38
2019-01-03T01:40:30.635Z,4.38
2019-01-03T01:43:12.575Z,4.43
2019-01-03T01:45:57.643Z,4.43
2019-01-03T01:48:27.709Z,4.36
2019-01-03T01:51:03.654Z,4.36
2019-01-03T01:53:46.064Z,4.32
2019-01-03T01:56:32.299Z,4.37
2019-01-03T01:59:05.298Z,4.49
2019-01-03T02:01:44.380Z,4.51
2019-01-03T02:04:20.741Z,4.58
2019-01-03T02:06:56.954Z,4.66
2019-01-03T02:09:39.375Z,4.60
2019-01-03T02:12:24.858Z,4.62
2019-01-03T02:15:07.030Z,4.64
2019-01-03T02:17:39.756Z,4.60
2019-01-03T02:20:09.943Z,4.57
2019-01-03T02:22:58.187Z,4.60
2019-01-03T02:25:44.445Z,4.66
2019-01-03T02:28:23.840Z,4.66
2019-01-03T02:30:53.941Z,4.69
2019-01-03T02:33:30.276Z,4.66
2019-01-03T02:36:00.376Z,4.62
2019-01-03T02:38:46.629Z,4.56
2019-01-03T02:41:33.166Z,4.60
2019-01-03T02:44:05.680Z,4.62
2019-01-03T02:46:35.730Z,4.63
2019-01-03T02:49:21.892Z,4.62
2019-01-03T02:51:54.707Z,4.59
2019-01-03T02:54:24.769Z,4.55
2019-01-03T02:57:06.842Z,4.60
2019-01-03T02:59:55.254Z,4.65
2019-01-03T03:02:34.154Z,4.70
2019-01-03T03:05:06.895Z,4.75
2019-01-03T03:07:37.022Z,4.74
2019-01-03T03:10:07.411Z,4.68
2019-01-03T03:12:53.423Z,4.69
2019-01-03T03:15:26.437Z,4.71
2019-01-03T03:17:59.232Z,4.69
2019-01-03T03:20:41.325Z,4.65
2019-01-03T03:23:23.788Z,4.66
2019-01-03T03:25:53.844Z,4.69
2019-01-03T03:28:33.285Z,4.70
2019-01-03T03:31:06.071Z,4.72
2019-01-03T03:33:54.726Z,4.73
2019-01-03T03:36:26.299Z,4.71
2019-01-03T03:38:59.064Z,4.72
2019-01-03T03:41:32.258Z,4.67
2019-01-03T03:44:02.364Z,4.70
2019-01-03T03:46:38.505Z,4.69
2019-01-03T03:49:24.643Z,4.75
2019-01-03T03:51:54.851Z,4.76
2019-01-03T03:54:30.931Z,4.69
2019-01-03T03:57:10.020Z,4.62
2019-01-03T03:59:40.186Z,4.60
2019-01-03T04:02:25.341Z,4.63
2019-01-03T04:05:13.890Z,4.63
2019-01-03T04:07:46.967Z,4.64
2019-01-03T04:10:33.256Z,4.72
2019-01-03T04:13:15.462Z,4.75
2019-01-03T04:15:48.382Z,4.71
2019-01-03T04:18:18.450Z,4.76
2019-01-03T04:20:48.534Z,4.75
2019-01-03T04:23:18.632Z,4.75
2019-01-03T04:26:04.979Z,4.77
2019-01-03T04:28:53.268Z,4.77
2019-01-03T04:31:41.752Z,4.72
2019-01-03T04:34:26.701Z,4.61
2019-01-03T04:37:08.436Z,4.69
2019-01-03T04:39:54.901Z,4.72
2019-01-03T04:42:24.977Z,4.69
2019-01-03T04:44:58.051Z,4.74
2019-01-03T04:47:33.930Z,4.74
2019-01-03T04:50:22.418Z,4.74
2019-01-03T04:53:04.629Z,4.76
2019-01-03T04:55:40.628Z,4.69
2019-01-03T04:58:22.997Z,4.61
2019-01-03T05:01:03.537Z,4.61
2019-01-03T05:03:39.297Z,4.59
2019-01-03T05:06:24.380Z,4.61
2019-01-03T05:09:03.614Z,4.62
2019-01-03T05:11:36.426Z,4.72
2019-01-03T05:14:15.591Z,4.79
2019-01-03T05:16:57.623Z,4.79
2019-01-03T05:19:43.115Z,4.75
2019-01-03T05:22:18.888Z,4.75
2019-01-03T05:25:06.913Z,4.74
2019-01-03T05:27:36.985Z,4.75
2019-01-03T05:30:08.604Z,4.75
2019-01-03T05:32:54.640Z,4.76
2019-01-03T05:35:27.462Z,4.78
2019-01-03T05:38:00.243Z,4.82
2019-01-03T05:40:33.034Z,4.86
2019-01-03T05:43:05.966Z,4.83
2019-01-03T05:45:41.786Z,4.85
2019-01-03T05:48:11.826Z,4.89
2019-01-03T05:50:47.933Z,4.88
2019-01-03T05:53:23.464Z,4.87
2019-01-03T05:56:05.356Z,4.92
2019-01-03T05:58:41.828Z,4.87
2019-01-03T06:01:26.824Z,4.81
2019-01-03T06:03:59.614Z,4.80
2019-01-03T06:06:44.714Z,4.77
2019-01-03T06:09:30.618Z,4.79
2019-01-03T06:12:12.339Z,4.75
2019-01-03T06:14:57.547Z,4.74
2019-01-03T06:17:27.689Z,4.80
2019-01-03T06:20:13.747Z,4.76
2019-01-03T06:23:00.058Z,4.79
2019-01-03T06:25:35.978Z,4.87
2019-01-03T06:28:06.222Z,4.90
2019-01-03T06:30:45.486Z,4.95
2019-01-03T06:33:31.713Z,4.97
2019-01-03T06:36:01.858Z,4.98
2019-01-03T06:38:31.938Z,4.95
2019-01-03T06:41:04.721Z,4.99
2019-01-03T06:43:50.719Z,5.01
2019-01-03T06:46:36.884Z,4.97
2019-01-03T06:49:09.978Z,4.92
2019-01-03T06:51:42.774Z,4.84
2019-01-03T06:54:12.914Z,4.83
2019-01-03T06:56:55.363Z,4.76
2019-01-03T06:59:41.940Z,4.68
2019-01-03T07:02:12.031Z,4.68
2019-01-03T07:04:47.657Z,4.77
2019-01-03T07:07:20.447Z,4.78
2019-01-03T07:09:50.541Z,4.81
2019-01-03T07:12:37.032Z,4.83
2019-01-03T07:15:10.385Z,4.86
2019-01-03T07:17:40.481Z,4.87
2019-01-03T07:20:10.559Z,4.91
2019-01-03T07:22:56.082Z,4.95
2019-01-03T07:25:42.092Z,5.00
2019-01-03T07:28:12.173Z,5.02
2019-01-03T07:30:58.717Z,5.01
2019-01-03T07:33:37.615Z,5.04
2019-01-03T07:36:26.113Z,5.03
2019-01-03T07:39:05.119Z,4.99
2019-01-03T07:41:35.305Z,4.98
2019-01-03T07:44:09.762Z,4.96
2019-01-03T07:46:39.855Z,4.99
2019-01-03T07:49:15.932Z,4.96
2019-01-03T07:51:48.445Z,4.91
2019-01-03T07:54:35.022Z,4.91
2019-01-03T07:57:21.279Z,4.92
2019-01-03T07:59:51.373Z,4.90
2019-01-03T08:02:33.749Z,4.83
2019-01-03T08:05:06.513Z,4.87
2019-01-03T08:07:52.919Z,4.83
2019-01-03T08:10:32.031Z,4.82
2019-01-03T08:13:21.237Z,4.81
2019-01-03T08:16:07.166Z,4.83
2019-01-03T08:18:52.414Z,4.90
2019-01-03T08:21:34.609Z,4.94
2019-01-03T08:24:10.688Z,4.98
2019-01-03T08:26:46.503Z,4.99
2019-01-03T08:29:34.595Z,5.02
2019-01-03T08:32:04.686Z,5.02
2019-01-03T08:34:50.702Z,5.05
2019-01-03T08:37:36.939Z,5.05
2019-01-03T08:40:25.435Z,5.04
2019-01-03T08:43:07.692Z,5.06
2019-01-03T08:45:46.580Z,5.12
2019-01-03T08:48:22.492Z,5.15
2019-01-03T08:51:10.689Z,5.11
2019-01-03T08:53:52.578Z,5.04
2019-01-03T08:56:38.569Z,5.03
2019-01-03T08:59:11.492Z,5.07
2019-01-03T09:01:52.507Z,5.15
2019-01-03T09:04:38.852Z,5.21
2019-01-03T09:07:15.018Z,5.24
2019-01-03T09:10:03.373Z,5.23
2019-01-03T09:12:38.937Z,5.29
2019-01-03T09:15:18.996Z,5.29
2019-01-03T09:18:09.592Z,5.29
2019-01-03T09:20:45.116Z,5.36
2019-01-03T09:23:30.549Z,5.34
2019-01-03T09:26:06.351Z,5.25
2019-01-03T09:28:42.136Z,5.23
2019-01-03T09:31:28.767Z,5.22
2019-01-03T09:34:05.045Z,5.16
2019-01-03T09:36:47.469Z,5.18
2019-01-03T09:39:20.341Z,5.24
2019-01-03T09:41:56.238Z,5.28
2019-01-03T09:44:29.401Z,5.32
2019-01-03T09:46:58.378Z,5.34
2019-01-03T09:49:26.797Z,5.32
2019-01-03T09:51:55.503Z,5.34
2019-01-03T09:54:24.101Z,5.36
2019-01-03T09:56:52.619Z,5.37
2019-01-03T09:59:21.052Z,5.37
2019-01-03T10:01:49.485Z,5.37
2019-01-03T10:04:17.934Z,5.37
2019-01-03T10:06:46.401Z,5.38
2019-01-03T10:09:14.872Z,5.43
2019-01-03T10:11:43.335Z,5.57
2019-01-03T10:14:11.828Z,5.67
2019-01-03T10:16:40.287Z,5.70
2019-01-03T10:19:08.741Z,5.74
2019-01-03T10:21:37.205Z,5.77
2019-01-03T10:24:05.606Z,5.76
2019-01-03T10:26:34.625Z,5.71
2019-01-03T10:29:06.234Z,5.74
2019-01-03T10:31:34.915Z,5.81
2019-01-03T10:34:03.377Z,5.86
2019-01-03T10:36:31.839Z,5.91
2019-01-03T10:39:00.290Z,5.83
2019-01-03T10:41:28.756Z,5.80
2019-01-03T10:43:57.256Z,5.74
2019-01-03T10:46:25.712Z,5.82
2019-01-03T10:48:54.178Z,5.82
2019-01-03T10:51:22.677Z,5.78
2019-01-03T10:53:51.125Z,5.80
2019-01-03T10:56:19.540Z,5.78
2019-01-03T10:58:47.995Z,5.86
2019-01-03T11:01:16.459Z,5.98
2019-01-03T11:03:44.908Z,6.04
2019-01-03T11:06:13.333Z,6.07
2019-01-03T11:08:41.794Z,6.10
2019-01-03T11:11:10.363Z,6.18
2019-01-03T11:13:38.800Z,6.29
2019-01-03T11:16:07.241Z,6.39
2019-01-03T11:18:35.661Z,6.46
2019-01-03T11:21:04.101Z,6.43
2019-01-03T11:23:32.519Z,6.33
2019-01-03T11:26:00.963Z,6.24
2019-01-03T11:28:29.958Z,6.25
2019-01-03T11:30:58.399Z,6.23
2019-01-03T11:33:26.818Z,6.26
2019-01-03T11:35:55.271Z,6.31
2019-01-03T11:38:23.683Z,6.35
2019-01-03T11:40:52.130Z,6.36
2019-01-03T11:43:20.579Z,6.45
2019-01-03T11:45:49.121Z,6.51
2019-01-03T11:48:17.523Z,6.59
2019-01-03T11:50:46.038Z,6.62
2019-01-03T11:53:14.541Z,6.58
2019-01-03T11:55:43.063Z,6.62
2019-01-03T11:58:14.572Z,6.63
2019-01-03T12:00:43.105Z,6.70
2019-01-03T12:03:16.147Z,6.73
2019-01-03T12:05:44.603Z,6.70
2019-01-03T12:08:13.030Z,6.59
2019-01-03T12:10:41.577Z,6.50
2019-01-03T12:13:10.027Z,6.50
2019-01-03T12:15:38.448Z,6.54
2019-01-03T12:18:06.921Z,6.54
2019-01-03T12:20:35.476Z,6.56
2019-01-03T12:23:04.028Z,6.51
2019-01-03T12:25:32.527Z,6.51
2019-01-03T12:28:01.072Z,6.55
2019-01-03T12:30:29.558Z,6.58
2019-01-03T12:32:58.029Z,6.61
2019-01-03T12:35:26.470Z,6.61
2019-01-03T12:37:54.967Z,6.59
2019-01-03T12:40:23.467Z,6.54
2019-01-03T12:42:51.925Z,6.58
2019-01-03T12:45:20.541Z,6.63
2019-01-03T12:47:49.007Z,6.64
2019-01-03T12:50:17.526Z,6.66
2019-01-03T12:52:45.989Z,6.75
2019-01-03T12:55:14.453Z,6.74
2019-01-03T12:57:43.412Z,6.69
2019-01-03T13:00:12.649Z,6.62
2019-01-03T13:02:41.101Z,6.67
2019-01-03T13:05:09.624Z,6.67
2019-01-03T13:07:38.062Z,6.77
2019-01-03T13:10:08.039Z,6.85
2019-01-03T13:12:36.523Z,6.84
2019-01-03T13:15:06.232Z,6.84
2019-01-03T13:17:34.713Z,6.85
2019-01-03T13:20:03.464Z,6.92
2019-01-03T13:22:31.966Z,6.80
2019-01-03T13:25:00.510Z,6.70
2019-01-03T13:27:28.924Z,6.61
2019-01-03T13:29:57.382Z,6.55
2019-01-03T13:32:25.816Z,6.56
2019-01-03T13:34:54.272Z,6.61
2019-01-03T13:37:22.864Z,6.59
2019-01-03T13:39:51.388Z,6.58
2019-01-03T13:42:19.791Z,6.62
2019-01-03T13:44:48.240Z,6.60
2019-01-03T13:47:16.672Z,6.60
2019-01-03T13:49:45.146Z,6.61
2019-01-03T13:52:13.604Z,6.63
2019-01-03T13:54:42.034Z,6.63
2019-01-03T13:57:10.489Z,6.70
2019-01-03T13:59:38.938Z,6.68
2019-01-03T14:02:07.847Z,6.62
2019-01-03T14:04:36.289Z,6.60
2019-01-03T14:07:05.772Z,6.64
2019-01-03T14:09:34.214Z,6.61
2019-01-03T14:12:02.718Z,6.57
2019-01-03T14:14:31.162Z,6.56
2019-01-03T14:16:59.653Z,6.55
2019-01-03T14:19:28.082Z,6.53
2019-01-03T14:21:56.527Z,6.58
2019-01-03T14:24:25.097Z,6.61
2019-01-03T14:26:53.556Z,6.65
2019-01-03T14:29:22.058Z,6.68
2019-01-03T14:31:51.002Z,6.68
2019-01-03T14:34:19.450Z,6.65
2019-01-03T14:36:47.976Z,6.65
2019-01-03T14:39:16.381Z,6.62
2019-01-03T14:41:44.839Z,6.64
2019-01-03T14:44:13.295Z,6.65
2019-01-03T14:46:41.827Z,6.61
2019-01-03T14:49:10.759Z,6.52
2019-01-03T14:51:39.527Z,6.47
2019-01-03T14:54:08.013Z,6.50
2019-01-03T14:56:36.656Z,6.53
2019-01-03T14:59:05.279Z,6.50
2019-01-03T15:01:33.919Z,6.53
2019-01-03T15:04:02.474Z,6.54
2019-01-03T15:06:30.912Z,6.57
2019-01-03T15:08:59.432Z,6.53
2019-01-03T15:11:29.574Z,6.55
2019-01-03T15:13:58.073Z,6.56
2019-01-03T15:16:28.042Z,6.43
2019-01-03T15:18:56.559Z,6.38
2019-01-03T15:21:26.119Z,6.33
2019-01-03T15:23:54.618Z,6.34
2019-01-03T15:26:23.187Z,6.36
2019-01-03T15:28:51.722Z,6.34
2019-01-03T15:31:20.132Z,6.30
2019-01-03T15:33:48.673Z,6.33
2019-01-03T15:36:17.133Z,6.34
2019-01-03T15:38:45.578Z,6.41
2019-01-03T15:41:14.147Z,6.41
2019-01-03T15:43:43.090Z,6.38
2019-01-03T15:46:11.595Z,6.41
2019-01-03T15:48:40.051Z,6.37
2019-01-03T15:51:08.500Z,6.37
2019-01-03T15:53:37.018Z,6.38
2019-01-03T15:56:06.061Z,6.39
2019-01-03T15:58:34.623Z,6.36
2019-01-03T16:01:03.756Z,6.32
2019-01-03T16:03:32.697Z,6.27
2019-01-03T16:06:01.166Z,6.29
2019-01-03T16:08:29.603Z,6.25
2019-01-03T16:10:58.147Z,6.31
2019-01-03T16:13:26.711Z,6.37
2019-01-03T16:15:55.203Z,6.35
2019-01-03T16:18:23.742Z,6.36
2019-01-03T16:20:52.453Z,6.32
2019-01-03T16:23:20.886Z,6.26
2019-01-03T16:25:49.505Z,6.24
2019-01-03T16:28:17.933Z,6.25
2019-01-03T16:30:46.376Z,6.25
2019-01-03T16:33:14.809Z,6.25
2019-01-03T16:35:48.016Z,6.27
2019-01-03T16:38:13.420Z,6.30
2019-01-03T16:40:41.986Z,6.31
2019-01-03T16:43:10.437Z,6.24
2019-01-03T16:45:38.947Z,6.18
2019-01-03T16:48:07.358Z,6.18
2019-01-03T16:50:35.827Z,6.15
2019-01-03T16:53:04.258Z,6.13
2019-01-03T16:55:32.947Z,6.12
2019-01-03T16:58:01.492Z,6.06
2019-01-03T17:00:30.053Z,6.00
2019-01-03T17:02:58.559Z,6.01
2019-01-03T17:05:27.226Z,6.00
2019-01-03T17:07:55.706Z,6.03
2019-01-03T17:10:24.128Z,6.09
2019-01-03T17:12:52.649Z,6.14
2019-01-03T17:15:21.083Z,6.18
2019-01-03T17:17:49.550Z,6.22
2019-01-03T17:20:17.983Z,6.23
2019-01-03T17:22:46.441Z,6.19
2019-01-03T17:25:15.027Z,6.19
2019-01-03T17:27:43.477Z,6.23
2019-01-03T17:30:12.128Z,6.24
2019-01-03T17:32:40.639Z,6.25
2019-01-03T17:35:10.486Z,6.28
2019-01-03T17:37:39.037Z,6.22
2019-01-03T17:40:10.288Z,6.10
2019-01-03T17:42:38.745Z,6.02
2019-01-03T17:45:09.942Z,6.01
2019-01-03T17:47:38.393Z,6.01
2019-01-03T17:50:09.887Z,6.00
2019-01-03T17:52:38.361Z,6.00
2019-01-03T17:55:08.326Z,5.97
2019-01-03T17:57:36.969Z,6.04
2019-01-03T18:00:14.405Z,6.08
2019-01-03T18:02:43.591Z,6.07
2019-01-03T18:05:12.113Z,6.08
2019-01-03T18:07:40.632Z,6.07
2019-01-03T18:10:13.610Z,6.06
2019-01-03T18:12:42.495Z,6.12
2019-01-03T18:15:11.195Z,6.08
2019-01-03T18:17:39.689Z,6.05
2019-01-03T18:20:11.373Z,6.06
2019-01-03T18:22:39.963Z,6.14
2019-01-03T18:25:08.562Z,6.11
2019-01-03T18:27:37.054Z,6.14
2019-01-03T18:30:08.832Z,6.19
2019-01-03T18:32:37.257Z,6.15
2019-01-03T18:35:05.990Z,6.09
2019-01-03T18:37:34.594Z,6.09
2019-01-03T18:40:03.377Z,6.10
2019-01-03T18:42:31.902Z,6.15
2019-01-03T18:45:00.398Z,6.19
2019-01-03T18:47:30.544Z,6.19
2019-01-03T18:49:59.046Z,6.22
2019-01-03T18:52:27.564Z,6.22
2019-01-03T18:54:56.344Z,6.23
2019-01-03T18:57:26.649Z,6.25
2019-01-03T18:59:55.664Z,6.25
2019-01-03T19:02:24.307Z,6.19
2019-01-03T19:04:52.937Z,6.10
2019-01-03T19:07:21.415Z,6.05
2019-01-03T19:09:50.361Z,6.06
2019-01-03T19:12:18.817Z,6.06
2019-01-03T19:14:47.325Z,6.11
2019-01-03T19:17:15.788Z,6.14
2019-01-03T19:19:45.626Z,6.10
2019-01-03T19:22:15.387Z,6.02
2019-01-03T19:24:43.784Z,6.07
2019-01-03T19:27:12.396Z,6.05
2019-01-03T19:29:42.817Z,6.05
2019-01-03T19:32:11.280Z,6.02
2019-01-03T19:34:42.951Z,5.95
2019-01-03T19:37:11.492Z,5.94
2019-01-03T19:39:40.156Z,5.92
2019-01-03T19:42:08.733Z,5.98
2019-01-03T19:44:37.972Z,6.01
2019-01-03T19:47:06.436Z,6.04
2019-01-03T19:49:37.079Z,5.98
2019-01-03T19:52:08.130Z,6.01
2019-01-03T19:54:37.324Z,6.03
2019-01-03T19:57:05.732Z,6.02
2019-01-03T19:59:34.373Z,5.93
2019-01-03T20:02:02.913Z,5.90
2019-01-03T20:04:32.986Z,5.87
2019-01-03T20:07:01.710Z,5.78
2019-01-03T20:09:39.955Z,5.74
2019-01-03T20:12:09.194Z,5.80
2019-01-03T20:14:37.873Z,5.80
2019-01-03T20:17:06.449Z,5.81
2019-01-03T20:19:35.034Z,5.79
2019-01-03T20:22:03.516Z,5.78
2019-01-03T20:24:32.054Z,5.78
2019-01-03T20:27:00.538Z,5.84
2019-01-03T20:29:29.037Z,5.87
2019-01-03T20:31:57.550Z,5.89
2019-01-03T20:34:26.219Z,5.83
2019-01-03T20:36:54.669Z,5.79
2019-01-03T20:39:23.119Z,5.83
2019-01-03T20:41:51.851Z,5.83
2019-01-03T20:44:20.365Z,5.82
2019-01-03T20:46:48.814Z,5.85
2019-01-03T20:49:17.818Z,5.89
2019-01-03T20:51:46.284Z,5.82
2019-01-03T20:54:14.792Z,5.80
2019-01-03T20:56:43.313Z,5.76
2019-01-03T20:59:11.777Z,5.79
2019-01-03T21:01:40.213Z,5.79
2019-01-03T21:04:08.716Z,5.80
2019-01-03T21:06:37.178Z,5.80
2019-01-03T21:09:06.043Z,5.86
2019-01-03T21:11:34.590Z,5.83
2019-01-03T21:14:03.154Z,5.89
2019-01-03T21:16:31.561Z,5.91
2019-01-03T21:19:00.046Z,5.94
2019-01-03T21:21:28.558Z,5.93
2019-01-03T21:23:57.064Z,5.95
2019-01-03T21:26:25.487Z,5.88
2019-01-03T21:28:53.935Z,5.82
2019-01-03T21:31:22.418Z,5.80
2019-01-03T21:33:50.943Z,5.82
2019-01-03T21:36:19.449Z,5.77
2019-01-03T21:38:47.997Z,5.80
2019-01-03T21:41:16.447Z,5.87
2019-01-03T21:43:45.109Z,5.87
2019-01-03T21:46:13.631Z,5.74
2019-01-03T21:48:42.211Z,5.68
2019-01-03T21:51:10.810Z,5.64
2019-01-03T21:53:39.255Z,5.65
2019-01-03T21:56:07.712Z,5.69
2019-01-03T21:58:36.174Z,5.73
2019-01-03T22:01:07.265Z,5.74
2019-01-03T22:03:35.745Z,5.70
2019-01-03T22:06:04.229Z,5.68
2019-01-03T22:08:32.888Z,5.63
2019-01-03T22:11:01.289Z,5.65
2019-01-03T22:13:29.755Z,5.64
2019-01-03T22:15:58.219Z,5.65
2019-01-03T22:18:26.744Z,5.67
2019-01-03T22:20:55.155Z,5.66
2019-01-03T22:23:23.669Z,5.61
2019-01-03T22:25:52.147Z,5.57
2019-01-03T22:28:20.727Z,5.59
2019-01-03T22:30:49.435Z,5.67
2019-01-03T22:33:17.900Z,5.72
2019-01-03T22:35:46.583Z,5.73
2019-01-03T22:38:14.986Z,5.75
2019-01-03T22:40:43.558Z,5.73
2019-01-03T22:43:12.053Z,5.67
2019-01-03T22:45:40.505Z,5.68
2019-01-03T22:48:08.967Z,5.67
2019-01-03T22:50:37.680Z,5.71
2019-01-03T22:53:06.081Z,5.71
2019-01-03T22:55:34.554Z,5.63
2019-01-03T22:58:02.979Z,5.65
2019-01-03T23:00:39.308Z,5.67
2019-01-03T23:03:08.247Z,5.70
2019-01-03T23:05:36.703Z,5.71
2019-01-03T23:08:05.252Z,5.68
2019-01-03T23:10:33.701Z,5.67
2019-01-03T23:13:02.273Z,5.69
2019-01-03T23:15:30.897Z,5.63
2019-01-03T23:17:59.449Z,5.58
2019-01-03T23:20:27.961Z,5.60
2019-01-03T23:22:56.423Z,5.66
2019-01-03T23:25:24.964Z,5.70
2019-01-03T23:27:53.393Z,5.70
2019-01-03T23:30:21.850Z,5.72
2019-01-03T23:32:50.353Z,5.71
2019-01-03T23:35:18.857Z,5.74
2019-01-03T23:37:47.306Z,5.72
2019-01-03T23:40:15.806Z,5.67
2019-01-03T23:42:44.256Z,5.54
2019-01-03T23:45:17.731Z,5.51
2019-01-03T23:47:46.723Z,5.58
2019-01-03T23:50:18.171Z,5.61
2019-01-03T23:52:46.616Z,5.62
2019-01-03T23:55:15.132Z,5.56
2019-01-03T23:57:43.713Z,5.55
